CST,Max TemperatureF,Mean TemperatureF,Min TemperatureF,Max Dew PointF,MeanDew PointF,Min DewpointF,Max Humidity, Mean Humidity, Min Humidity, Max Sea Level PressureIn, Mean Sea Level PressureIn, Min Sea Level PressureIn, Max VisibilityMiles, Mean VisibilityMiles, Min VisibilityMiles, Max Wind SpeedMPH, Mean Wind SpeedMPH, Max Gust SpeedMPH,PrecipitationIn, CloudCover, Events, WindDirDegrees
2013-1-1,26,13,0,27,18,-2,100,99,92,30.05,29.93,29.85,10,7,0,25,13,33,0.28,6,Fog-Snow,266
2013-1-2,28,18,8,28,20,9,100,95,86,30.24,30.04,29.88,10,9,1,23,17,32,2.20,7,Rain-Snow,320
2013-1-3,24,17,10,16,12,9,100,82,63,30.22,30.05,29.94,10,10,9,24,15,31,0.00,2,Snow,265
2013-1-4,23,14,6,14,8,1,92,80,59,30.03,29.97,29.86,10,10,10,14,6,,0.00,0,,252
2013-1-5,15,9,3,14,8,0,100,87,78,30.12,30.02,29.87,10,10,5,21,12,28,0.05,3,Rain-Snow,293
2013-1-6,28,17,6,23,14,3,100,90,74,30.09,29.86,29.65,10,8,0,22,9,29,0.00,3,Fog-Snow,226
2013-1-7,26,20,8,21,17,7,93,82,69,29.79,29.74,29.66,10,10,10,23,16,26,0.00,0,,256
2013-1-8,32,20,8,32,24,9,100,89,75,29.88,29.64,29.48,10,9,1,34,15,45,0.03,4,Rain-Snow,260
2013-1-9,30,18,6,27,18,5,93,86,69,30.00,29.90,29.72,10,10,10,16,9,25,0.00,3,,188
2013-1-10,32,24,15,28,25,16,100,94,80,29.70,29.56,29.49,10,9,2,24,8,33,0.00,2,Rain-Snow,62
2013-1-11,15,8,1,16,6,0,100,90,78,29.84,29.68,29.58,10,4,0,33,20,40,2.69,8,Rain-Snow,17
2013-1-12,1,-3,-7,0,-9,-13,92,75,66,30.12,30.03,29.84,10,8,1,29,19,37,0.17,3,Rain-Snow,311
2013-1-13,1,-4,-9,-2,-7,-13,85,82,71,30.13,30.10,30.05,10,10,5,15,10,20,0.05,5,Snow,290
2013-1-14,10,0,-9,5,-3,-13,92,82,72,30.12,30.05,29.92,10,10,10,12,5,,0.00,8,Snow,240
2013-1-15,35,18,1,36,20,0,100,92,79,29.92,29.73,29.58,10,9,2,29,12,34,1.24,7,Rain-Snow,248
2013-1-16,35,24,12,34,23,9,100,90,80,30.11,29.90,29.66,10,10,5,18,13,24,0.02,7,Rain-Snow,311
2013-1-17,26,20,15,27,19,14,100,93,86,30.28,30.16,29.81,10,10,6,16,9,20,0.03,7,Snow,268
2013-1-18,35,30,24,30,27,25,100,87,75,29.80,29.71,29.67,10,10,10,17,9,22,0.00,4,,267
2013-1-19,35,16,-4,32,2,-11,93,77,66,30.30,30.10,29.70,10,10,2,34,19,45,0.04,5,Rain-Snow,307
2013-1-20,1,-6,-14,-2,-14,-20,92,74,64,30.44,30.35,30.23,10,8,2,26,16,38,0.25,3,Rain-Snow,312
2013-1-21,0,-8,-16,-8,-14,-22,77,72,65,30.34,30.25,30.17,10,10,10,21,14,29,0.00,2,,295
2013-1-22,10,4,-2,7,-1,-9,92,80,71,30.16,30.09,30.03,10,9,4,18,5,22,0.11,5,Snow,252
2013-1-23,5,0,-4,0,-7,-9,85,76,66,30.40,30.31,30.13,10,10,10,17,11,22,0.00,4,,30
2013-1-24,23,10,-2,19,2,-8,93,83,72,30.30,29.98,29.80,10,8,0,37,21,47,0.32,7,Rain-Snow,186
2013-1-25,8,0,-7,5,-4,-13,92,76,60,30.14,30.03,29.93,10,10,10,24,14,30,0.01,2,Rain-Snow,220
2013-1-26,32,19,6,27,16,3,100,88,74,29.92,29.85,29.81,10,10,10,13,5,,0.00,4,,128
2013-1-27,28,19,10,27,17,9,100,92,74,29.82,29.73,29.68,10,9,1,13,5,,1.84,3,Snow,69
2013-1-28,28,16,5,27,21,3,100,94,74,29.76,29.73,29.70,10,8,0,14,7,,0.54,4,Fog-Snow,277
2013-1-29,19,6,-7,19,6,-11,100,92,77,30.08,29.84,29.68,10,5,0,25,8,38,0.11,7,Fog-Rain-Snow,344
2013-1-30,-7,-12,-16,-11,-20,-22,84,74,64,30.05,29.95,29.88,10,9,2,23,15,32,0.04,4,Rain-Snow,317
2013-1-31,-11,-18,-22,-18,-25,-29,77,71,64,30.25,30.16,30.01,10,9,2,21,14,26,0.00,4,Rain-Snow-Thunderstorm,293